Arock, Oregon
Current Conditions -  °F | °C
As of 6:15 AM on Thursday 27 Nov 2014 (Local Time) from KMAN Reporting Station
Overcast Overcast  
Wind Chill: 37°   Ceiling: 7500
Heat Index: 41°   Visibility: 10mi
Dew Point: 41°   Wind: 6mph
Humidity: 100%   Direction: 130°SE
Pressure: 30.14"   Gusts: NA
Location:  42.91°N, 117.53°W
Report Text: KMAN 271315Z AUTO 13005KT 10SM FEW065 BKN075 OVC100 05/05 A3014 RMK AO1
Loading
Personal Weather Stations






























Interactive Weather Map New forecast layout! Learn more

10-Day Weather Forecast

Advertisements
Track Severe Weather on mobile